Flight Track Log - Related Links

Times and Time Zones

All times are in EDT time to prevent confusion due to time zone crossing. See the VH-YNL flight status page for this flight to view local times or setup timezone preferences in your user account.

Time Position Orientation Groundspeed Altitude Reporting Facility
EDT Latitude Longitude Course Direction KTS MPH feet Rate Location/Type
Sat 12:25:58 AM -34.8079 138.6264 234° Southwest 73 84 600  Level Aus ATC (RADAR)
Sat 12:26:33 AM -34.8153 138.6138 234° Southwest 78 90 1,200 1,029 Climbing Aus ATC (RADAR)
Sat 12:27:08 AM -34.8190 138.5995 252° West 77 89 1,800 960 Climbing Aus ATC (RADAR)
Sat 12:27:48 AM -34.8231 138.5828 253° West 77 89 2,400 857 Climbing Aus ATC (RADAR)
Sat 12:28:18 AM -34.8256 138.5703 256° West 76 87 2,800 831 Climbing Aus ATC (RADAR)
Sat 12:28:53 AM -34.8286 138.5554 256° West 78 90 3,300 857 Climbing Aus ATC (RADAR)
Sat 12:29:28 AM -34.8318 138.5399 256° West 81 93 3,800 923 Climbing Aus ATC (RADAR)
Sat 12:29:58 AM -34.8357 138.5273 249° West 79 91 4,300 857 Climbing Aus ATC (RADAR)
Sat 12:30:38 AM -34.8488 138.5322 163° South 76 87 4,800 640 Climbing Aus ATC (RADAR)
Sat 12:31:13 AM -34.8599 138.5396 152° Southeast 80 92 5,100 185 Climbing Aus ATC (RADAR)
Sat 12:31:43 AM -34.8733 138.5473 155° Southeast 102 117 5,000 -92 Descending Aus ATC (RADAR)
Sat 12:32:18 AM -34.8891 138.5571 153° Southeast 109 125 5,000 58 Level Aus ATC (RADAR)
Sat 12:33:27 AM -34.9205 138.5751 155° Southeast 106 122 5,100 53 Climbing Aus ATC (RADAR)
Sat 12:34:12 AM -34.9408 138.5878 153° Southeast 109 125 5,100 -67 Level Aus ATC (RADAR)
Sat 12:34:57 AM -34.9619 138.5993 156° South 111 128 5,000  Descending Aus ATC (RADAR)
Sat 12:35:32 AM -34.9772 138.6103 150° Southeast 108 124 5,100  Climbing Aus ATC (RADAR)
Sat 12:36:07 AM -34.9807 138.6351 100° East 124 143 5,000 -86 Descending Aus ATC (RADAR)
Sat 12:36:42 AM -34.9864 138.6570 108° East 119 137 5,000 86 Level Aus ATC (RADAR)
Sat 12:37:17 AM -34.9930 138.6793 110° East 121 139 5,100  Climbing Aus ATC (RADAR)
Sat 12:37:57 AM -35.0006 138.7047 110° East 120 138 5,000 -80 Descending Aus ATC (RADAR)
Sat 12:38:32 AM -35.0066 138.7273 108° East 120 138 5,000  Level Aus ATC (RADAR)
Sat 12:39:07 AM -35.0129 138.7494 109° East 118 136 5,000  Level Aus ATC (RADAR)
Sat 12:39:37 AM -35.0186 138.7683 110° East 120 138 5,000  Level Aus ATC (RADAR)
Sat 12:40:12 AM -35.0254 138.7901 111° Southeast 119 137 5,000  Level Aus ATC (RADAR)
Sat 12:40:46 AM -35.0322 138.8123 111° Southeast 119 137 5,000  Level Aus ATC (RADAR)
Sat 12:41:22 AM -35.0388 138.8342 110° East 119 137 5,000  Level Aus ATC (RADAR)
Sat 12:42:26 AM -35.0515 138.8752 111° Southeast 120 138 5,000 53 Level Aus ATC (RADAR)
Sat 12:43:16 AM -35.0608 138.9060 110° East 117 135 5,100 55 Climbing Aus ATC (RADAR)
Sat 12:44:16 AM -35.0720 138.9427 110° East 115 132 5,100  Level Aus ATC (RADAR)
Sat 12:44:56 AM -35.0782 138.9678 107° East 116 133 5,100 -67 Level Aus ATC (RADAR)
Sat 12:45:46 AM -35.0877 139.0008 109° East 124 143 5,000 -52 Descending Aus ATC (RADAR)
Sat 12:46:51 AM -35.1003 139.0427 110° East 122 140 5,000  Level Aus ATC (RADAR)
Sat 12:47:26 AM -35.1066 139.0645 109° East 118 136 5,000 75 Level Aus ATC (RADAR)
Sat 12:48:11 AM -35.1143 139.0933 108° East 118 136 5,100 71 Climbing Aus ATC (RADAR)
Sat 12:48:51 AM -35.1218 139.1200 109° East 123 142 5,100  Level Aus ATC (RADAR)
Sat 12:49:26 AM -35.1283 139.1422 110° East 119 137 5,100  Level Aus ATC (RADAR)
Sat 12:50:11 AM -35.1362 139.1722 108° East 124 143 5,100  Level Aus ATC (RADAR)
Sat 12:51:15 AM -35.1454 139.2147 105° East 120 138 5,100  Level Aus ATC (RADAR)
Sat 12:51:55 AM -35.1542 139.2388 114° Southeast 117 135 5,100  Level Aus ATC (RADAR)
Sat 12:52:30 AM -35.1612 139.2604 112° Southeast 117 135 5,100  Level Aus ATC (RADAR)
Sat 12:53:10 AM -35.1686 139.2860 109° East 119 137 5,100  Level Aus ATC (RADAR)
Sat 12:53:45 AM -35.1758 139.3076 112° Southeast 117 135 5,100  Level Aus ATC (RADAR)
Sat 12:54:20 AM -35.1820 139.3297 109° East 118 136 5,100  Level Aus ATC (RADAR)
Sat 12:54:50 AM -35.1884 139.3482 113° Southeast 118 136 5,100  Level Aus ATC (RADAR)
Sat 12:55:30 AM -35.1968 139.3735 112° Southeast 122 140 5,100 -80 Level Aus ATC (RADAR)
Sat 12:56:05 AM -35.2035 139.3962 110° East 122 140 5,000  Descending Aus ATC (RADAR)
Sat 12:56:55 AM -35.2134 139.4282 111° Southeast 119 137 5,100 55 Climbing Aus ATC (RADAR)
Sat 12:57:55 AM -35.2265 139.4647 114° Southeast 117 135 5,100 300 Level Aus ATC (RADAR)
Sat 12:58:35 AM -35.2355 139.4864 117° Southeast 104 120 5,600 242 Climbing Aus ATC (RADAR)
Sat 12:59:34 AM -35.2456 139.5219 109° East 114 131 5,500 -58 Descending Aus ATC (RADAR)
Sat 01:00:19 AM -35.2518 139.5495 105° East 110 127 5,500  Level Aus ATC (RADAR)
Sat 01:00:59 AM -35.2689 139.5390 207° Southwest 104 120 5,500  Level Aus ATC (RADAR)
Sat 01:01:44 AM -35.2855 139.5254 214° Southwest 96 110 5,500 57 Level Aus ATC (RADAR)
Sat 01:02:44 AM -35.3056 139.5044 220° Southwest 106 122 5,600 50 Climbing Aus ATC (RADAR)
Sat 01:03:44 AM -35.2776 139.4815 326° Northwest 124 143 5,600 -50 Level Aus ATC (RADAR)
Sat 01:04:44 AM -35.2432 139.5086 33° Northeast 141 162 5,500 -57 Descending Aus ATC (RADAR)
Sat 01:05:29 AM -35.2176 139.5237 26° Northeast 140 161 5,500  Level Aus ATC (RADAR)
Sat 01:06:04 AM -35.2044 139.5062 313° West 125 144 5,500  Level Aus ATC (RADAR)
Sat 01:06:49 AM -35.2234 139.4907 214° Southwest 99 114 5,500 57 Level Aus ATC (RADAR)
Sat 01:07:49 AM -35.2459 139.4736 212° Southwest 96 110 5,600 58 Climbing Aus ATC (RADAR)
Sat 01:08:33 AM -35.2633 139.4608 211° Southwest 97 112 5,600 -162 Level Aus ATC (RADAR)
Sat 01:09:03 AM -35.2763 139.4626 174° South 108 124 5,400 -92 Descending Aus ATC (RADAR)
Sat 01:09:38 AM -35.2750 139.4844 86° East 102 117 5,500 75 Climbing Aus ATC (RADAR)
Sat 01:10:23 AM -35.2497 139.5058 35° Northeast 136 157 5,500  Level Aus ATC (RADAR)
Sat 01:10:58 AM -35.2320 139.5206 34° Northeast 133 153 5,500 -122 Level Aus ATC (RADAR)
Sat 01:15:18 AM -35.1871 139.6172 60° Northeast 95 109 4,900 -142 Descending Aus ATC (RADAR)
Sat 01:15:53 AM -35.1970 139.6023 231° Southwest 101 116 4,800 -424 Descending Aus ATC (RADAR)
Sat 01:16:43 AM -35.2075 139.5777 243° Southwest 100 115 4,300 -382 Descending Aus ATC (RADAR)
Sat 01:17:43 AM -35.2227 139.5508 235° Southwest 96 110 4,100 -92 Descending Aus ATC (RADAR)
Sat 01:18:53 AM -35.2396 139.5197 236° Southwest 92 106 4,100 48 Level Aus ATC (RADAR)
Sat 01:19:48 AM -35.2478 139.4921 250° West 107 123 4,200 526 Climbing Aus ATC (RADAR)
Sat 01:20:47 AM -35.2265 139.4673 316° Northwest 100 115 5,100 750 Climbing Aus ATC (RADAR)
Sat 01:21:32 AM -35.2114 139.4485 315° West 105 121 5,500 300 Climbing Aus ATC (RADAR)
Sat 01:22:07 AM -35.1982 139.4308 312° West 117 135 5,500  Level Aus ATC (RADAR)
Sat 01:22:42 AM -35.1984 139.4133 269° West 90 104 5,500  Level Aus ATC (RADAR)
Sat 01:23:12 AM -35.2128 139.4090 194° South 98 113 5,500  Level Aus ATC (RADAR)
Sat 01:23:47 AM -35.2273 139.4047 193° South 95 109 5,500 80 Level Aus ATC (RADAR)
Sat 01:24:27 AM -35.2440 139.3989 196° South 94 108 5,600 86 Climbing Aus ATC (RADAR)
Sat 01:24:57 AM -35.2567 139.4034 164° South 105 121 5,600 -185 Level Aus ATC (RADAR)
Sat 01:25:32 AM -35.2641 139.4230 115° Southeast 111 128 5,400 -80 Descending Aus ATC (RADAR)
Sat 01:26:12 AM -35.2661 139.4500 95° East 114 131 5,500 86 Climbing Aus ATC (RADAR)
Sat 01:26:42 AM -35.2587 139.4704 66° East 123 142 5,500 92 Level Aus ATC (RADAR)
Sat 01:27:17 AM -35.2499 139.4931 65° Northeast 122 140 5,600 -75 Climbing Aus ATC (RADAR)
Sat 01:28:02 AM -35.2371 139.5214 61° Northeast 130 150 5,400 -80 Descending Aus ATC (RADAR)
Sat 01:28:32 AM -35.2243 139.5356 42° Northeast 125 144 5,500 92 Climbing Aus ATC (RADAR)
Sat 01:29:07 AM -35.2049 139.5253 336° Northwest 136 157 5,500  Level Aus ATC (RADAR)
Sat 01:29:42 AM -35.2010 139.5072 285° West 88 101 5,500  Level Aus ATC (RADAR)
Sat 01:30:12 AM -35.2155 139.4985 206° Southwest 102 117 5,500  Level Aus ATC (RADAR)
Sat 01:30:51 AM -35.2295 139.4875 213° Southwest 92 106 5,500 87 Level Aus ATC (RADAR)
Sat 01:31:21 AM -35.2404 139.4783 214° Southwest 95 109 5,600 -92 Climbing Aus ATC (RADAR)
Sat 01:31:56 AM -35.2531 139.4684 213° Southwest 93 107 5,400 -86 Descending Aus ATC (RADAR)
Sat 01:32:31 AM -35.2660 139.4580 213° Southwest 94 108 5,500 141 Climbing Aus ATC (RADAR)
Sat 01:33:21 AM -35.2762 139.4822 118° Southeast 108 124 5,600 -57 Climbing Aus ATC (RADAR)
Sat 01:34:16 AM -35.2440 139.5091 34° Northeast 143 165 5,400 -63 Descending Aus ATC (RADAR)
Sat 01:34:56 AM -35.2239 139.5296 40° Northeast 147 169 5,500 -230 Climbing Aus ATC (RADAR)
Sat 01:39:55 AM -35.2449 139.5076 221° Southwest 100 115 4,100 -159 Descending Aus ATC (RADAR)
Sat 01:40:35 AM -35.2455 139.4853 268° West 114 131 4,600 698 Climbing Aus ATC (RADAR)
Sat 01:41:21 AM -35.2268 139.4703 327° Northwest 105 121 5,100 741 Climbing Aus ATC (RADAR)
Sat 01:41:56 AM -35.2166 139.4547 309° West 101 116 5,600 405 Climbing Aus ATC (RADAR)
Sat 01:42:35 AM -35.2025 139.4320 307° West 126 145 5,600 61 Level Aus ATC (RADAR)
Sat 01:43:35 AM -35.1715 139.4176 339° North 138 159 5,700 57 Climbing Aus ATC (RADAR)
Sat 01:44:20 AM -35.1618 139.4494 70° East 136 157 5,700 171 Level Aus ATC (RADAR)
Sat 01:45:20 AM -35.1588 139.4909 85° East 130 150 6,000 240 Climbing Aus ATC (RADAR)
Sat 01:46:00 AM -35.1564 139.5204 84° East 131 151 6,100  Climbing Aus ATC (RADAR)
Sat 01:46:35 AM -35.1596 139.5452 99° East 128 147 6,000 -75 Descending Aus ATC (RADAR)
Sat 01:47:20 AM -35.1740 139.5704 125° Southeast 115 132 6,000 60 Level Aus ATC (RADAR)
Sat 01:48:15 AM -35.2015 139.5644 190° South 107 123 6,100 60 Climbing Aus ATC (RADAR)
Sat 01:49:00 AM -35.2186 139.5478 218° Southwest 120 138 6,100  Level Aus ATC (RADAR)
Sat 01:49:50 AM -35.2342 139.5225 233° Southwest 112 129 6,100  Level Aus ATC (RADAR)
Sat 01:50:34 AM -35.2492 139.5005 230° Southwest 114 131 6,100  Level Aus ATC (RADAR)
Sat 01:51:09 AM -35.2599 139.4838 232° Southwest 108 124 6,100  Level Aus ATC (RADAR)
Sat 01:51:44 AM -35.2705 139.4670 232° Southwest 107 123 6,100  Level Aus ATC (RADAR)
Sat 01:52:14 AM -35.2797 139.4526 232° Southwest 106 122 6,100  Level Aus ATC (RADAR)
Sat 01:52:49 AM -35.2911 139.4351 231° Southwest 111 128 6,100  Level Aus ATC (RADAR)
Sat 01:53:24 AM -35.3020 139.4180 232° Southwest 111 128 6,100  Level Aus ATC (RADAR)
Sat 01:53:59 AM -35.3142 139.4022 227° Southwest 110 127 6,100  Level Aus ATC (RADAR)
Sat 01:54:39 AM -35.3264 139.3834 231° Southwest 108 124 6,100 -133 Level Aus ATC (RADAR)
Sat 01:55:29 AM -35.3428 139.3590 230° Southwest 111 128 5,900  Descending Aus ATC (RADAR)
Sat 01:56:29 AM -35.3614 139.3296 232° Southwest 111 128 6,100 120 Climbing Aus ATC (RADAR)
Sat 01:57:09 AM -35.3733 139.3109 232° Southwest 105 121 6,100  Level Aus ATC (RADAR)
Sat 01:57:44 AM -35.3837 139.2948 232° Southwest 104 120 6,100  Level Aus ATC (RADAR)
Sat 01:58:19 AM -35.3944 139.2790 230° Southwest 104 120 6,100  Level Aus ATC (RADAR)
Sat 01:58:54 AM -35.4054 139.2626 231° Southwest 106 122 6,100  Level Aus ATC (RADAR)
Sat 01:59:34 AM -35.4183 139.2442 229° Southwest 107 123 6,100 -126 Level Aus ATC (RADAR)
Sat 02:00:29 AM -35.4189 139.2112 269° West 136 157 5,900  Descending Aus ATC (RADAR)
Sat 02:01:04 AM -35.4048 139.1931 314° West 126 145 6,100 171 Climbing Aus ATC (RADAR)
Sat 02:01:39 AM -35.3915 139.1745 311° West 123 142 6,100 -171 Level Aus ATC (RADAR)
Sat 02:02:14 AM -35.3799 139.1542 305° West 124 143 5,900  Descending Aus ATC (RADAR)
Sat 02:02:55 AM -35.3655 139.1319 308° West 125 144 6,100 141 Climbing Aus ATC (RADAR)
Sat 02:03:39 AM -35.3473 139.1093 315° West 125 144 6,100  Level Aus ATC (RADAR)
Sat 02:04:50 AM -35.3174 139.0766 318° Northwest 122 140 6,100  Level Aus ATC (RADAR)
Sat 02:05:28 AM -35.3031 139.0541 308° West 125 144 6,100 -82 Level Aus ATC (RADAR)
Sat 02:06:03 AM -35.2896 139.0353 311° West 127 146 6,000 -71 Descending Aus ATC (RADAR)
Sat 02:06:53 AM -35.2715 139.0079 309° West 124 143 6,000  Level Aus ATC (RADAR)
Sat 02:07:43 AM -35.2535 138.9805 309° West 124 143 6,000 63 Level Aus ATC (RADAR)
Sat 02:08:28 AM -35.2376 138.9560 308° West 123 142 6,100 75 Climbing Aus ATC (RADAR)
Sat 02:09:03 AM -35.2251 138.9370 309° West 122 140 6,100 -225 Level Aus ATC (RADAR)
Sat 02:09:48 AM -35.2093 138.9105 306° West 128 147 5,800 -525 Descending Aus ATC (RADAR)
Sat 02:10:23 AM -35.1976 138.8919 308° West 119 137 5,400 -686 Descending Aus ATC (RADAR)
Sat 02:10:58 AM -35.1867 138.8734 306° West 115 132 5,000 -343 Descending Aus ATC (RADAR)
Sat 02:11:33 AM -35.1751 138.8550 308° West 118 136 5,000  Level Aus ATC (RADAR)
Sat 02:12:03 AM -35.1648 138.8390 308° West 119 137 5,000 92 Level Aus ATC (RADAR)
Sat 02:12:38 AM -35.1521 138.8205 310° West 121 139 5,100  Climbing Aus ATC (RADAR)
Sat 02:13:13 AM -35.1391 138.8009 309° West 127 146 5,000 -87 Descending Aus ATC (RADAR)
Sat 02:13:47 AM -35.1259 138.7818 310° West 127 146 5,000  Level Aus ATC (RADAR)
Sat 02:14:22 AM -35.1124 138.7634 312° West 126 145 5,000 75 Level Aus ATC (RADAR)
Sat 02:15:07 AM -35.0931 138.7410 316° Northwest 128 147 5,100 57 Climbing Aus ATC (RADAR)
Sat 02:16:07 AM -35.0644 138.7132 322° Northwest 131 151 5,100  Level Aus ATC (RADAR)
Sat 02:16:52 AM -35.0486 138.6866 306° West 129 148 5,100 -75 Level Aus ATC (RADAR)
Sat 02:17:27 AM -35.0356 138.6659 307° West 129 148 5,000 -185 Descending Aus ATC (RADAR)
Sat 02:17:57 AM -35.0255 138.6483 305° West 126 145 4,900 -343 Descending Aus ATC (RADAR)
Sat 02:18:37 AM -35.0121 138.6275 308° West 118 136 4,600 -480 Descending Aus ATC (RADAR)
Sat 02:19:12 AM -34.9953 138.6159 330° Northwest 119 137 4,300 -400 Descending Aus ATC (RADAR)
Sat 02:20:07 AM -34.9691 138.5967 329° Northwest 121 139 4,000 -114 Descending Aus ATC (RADAR)
Sat 02:20:57 AM -34.9441 138.5781 329° Northwest 128 147 4,100  Climbing Aus ATC (RADAR)
Sat 02:21:32 AM -34.9260 138.5637 327° Northwest 132 152 4,000 -80 Descending Aus ATC (RADAR)
Sat 02:22:12 AM -34.9062 138.5483 327° Northwest 127 146 4,000 -80 Level Aus ATC (RADAR)
Sat 02:22:47 AM -34.8896 138.5347 326° Northwest 123 142 3,900 -429 Descending Aus ATC (RADAR)
Sat 02:23:22 AM -34.8741 138.5224 327° Northwest 114 131 3,500 -609 Descending Aus ATC (RADAR)
Sat 02:23:56 AM -34.8589 138.5109 328° Northwest 111 128 3,200 -609 Descending Aus ATC (RADAR)
Sat 02:24:31 AM -34.8416 138.5089 355° North 116 133 2,800 -706 Descending Aus ATC (RADAR)
Sat 02:25:21 AM -34.8295 138.5377 63° Northeast 113 130 2,200 -655 Descending Aus ATC (RADAR)
Sat 02:26:21 AM -34.8177 138.5728 68° East 112 129 1,600 -382 Descending Aus ATC (RADAR)
Sat 02:27:11 AM -34.8061 138.6014 64° Northeast 114 131 1,500 -71 Descending Aus ATC (RADAR)
Sat 02:27:46 AM -34.7994 138.6219 68° East 114 131 1,500 -75 Level Aus ATC (RADAR)
Sat 02:28:31 AM -34.8027 138.6485 99° East 108 124 1,400 -133 Descending Aus ATC (RADAR)

Login

Don't have an account? Register now (free) for customized features, flight alerts, and more!